»·PEaware :: N732KA KFSM-KMDW

N732KA :: KFSM-KMDW

FLIGHT INFORMATION

Flight Status: Arrived
Operator: Privately registered:
United States
More flights under this callsign
Pilot: Anonymous 14085 (14085)
Aircraft: BOEING 737-300
(B733)
More flights by this aircraft type
Origin: KFSM Ft Smith Regl
United States
Destination: KMDW Chicago-Midway
United States
More flights between these airports :: More routes between these airports
Route: HRO STL PHEEB ENDEE4
File this flight plan on PilotEdge
Remarks: RMK / SIMBRIEF
Altitude:
(Current/Filed)
35,000ft
Speed:
(Current/Filed)
438kts
Departed: 08-Aug-20 09:46 AM
Arrived: 08-Aug-20 11:04 AM
Distance/Time
Traveled:
495nm/1:18
Distance/Time
To Go:
Arrived

Flight Plot

Page will automatically refresh every two minutes.

Flight plan parsing failed; only flown route is shown


Map Options




Map Legend


Flown Route
Filed Route
Departure Airport
Arrival Airport
Navaid (VOR, NDB)
Fix

Horizontal Profiles

Position Reports

Time Latitude Longitude Heading Altitude Ground
Speed
08-Aug-20 09:29 35.336468 -94.373291 350 476ft 0kts
08-Aug-20 09:30 35.336468 -94.373291 350 476ft 0kts
08-Aug-20 09:31 35.336468 -94.373291 350 476ft 0kts
08-Aug-20 09:32 35.336468 -94.373291 350 476ft 0kts
08-Aug-20 09:33 35.336468 -94.373291 350 476ft 0kts
08-Aug-20 09:34 35.336468 -94.373291 350 476ft 0kts
08-Aug-20 09:35 35.336468 -94.373291 350 476ft 0kts
08-Aug-20 09:36 35.336468 -94.373291 350 476ft 0kts
08-Aug-20 09:37 35.336468 -94.373291 350 476ft 0kts
08-Aug-20 09:38 35.336468 -94.373291 350 476ft 0kts
08-Aug-20 09:39 35.336468 -94.373291 350 476ft 0kts
08-Aug-20 09:40 35.336468 -94.373291 350 476ft 0kts
08-Aug-20 09:41 35.336440 -94.373593 197 476ft 2kts
08-Aug-20 09:42 35.335387 -94.376126 260 476ft 11kts
08-Aug-20 09:43 35.334811 -94.380820 255 476ft 14kts
08-Aug-20 09:44 35.333674 -94.381172 103 476ft 4kts
08-Aug-20 09:45 35.337941 -94.345683 79 1044ft 182kts
08-Aug-20 09:46 35.379586 -94.296917 29 3043ft 241kts
08-Aug-20 09:47 35.437159 -94.242734 38 5623ft 277kts
08-Aug-20 09:48 35.490067 -94.184128 40 8259ft 290kts
08-Aug-20 09:49 35.550996 -94.113540 42 10366ft 331kts
08-Aug-20 09:50 35.623811 -94.029214 42 12253ft 373kts
08-Aug-20 09:51 35.700496 -93.940333 42 14750ft 385kts
08-Aug-20 09:52 35.779807 -93.848166 42 17004ft 397kts
08-Aug-20 09:53 35.861100 -93.753231 41 19138ft 407kts
08-Aug-20 09:54 35.943959 -93.656215 41 21083ft 417kts
08-Aug-20 09:55 36.028949 -93.556419 41 22878ft 426kts
08-Aug-20 09:56 36.115937 -93.454016 41 24458ft 436kts
08-Aug-20 09:57 36.204229 -93.349902 41 26021ft 442kts
08-Aug-20 09:58 36.294155 -93.243034 41 27404ft 450kts
08-Aug-20 09:59 36.388916 -93.140744 37 29035ft 447kts
08-Aug-20 10:00 36.483810 -93.043209 36 30724ft 439kts
08-Aug-20 10:01 36.577245 -92.946821 35 32183ft 432kts
08-Aug-20 10:02 36.669293 -92.851581 34 33236ft 432kts
08-Aug-20 10:03 36.763618 -92.753661 34 33226ft 446kts
08-Aug-20 10:04 36.858968 -92.654314 34 33228ft 445kts
08-Aug-20 10:05 36.954086 -92.554900 34 33236ft 446kts
08-Aug-20 10:06 37.050397 -92.453921 35 33237ft 459kts
08-Aug-20 10:07 37.150271 -92.348998 36 33271ft 473kts
08-Aug-20 10:08 37.250966 -92.242408 36 33218ft 471kts
08-Aug-20 10:09 37.351205 -92.136104 36 33191ft 471kts
08-Aug-20 10:10 37.451376 -92.029353 36 33196ft 472kts
08-Aug-20 10:11 37.551219 -91.922633 36 33193ft 471kts
08-Aug-20 10:12 37.651247 -91.815322 36 33193ft 471kts
08-Aug-20 10:13 37.750880 -91.708034 37 33229ft 460kts
08-Aug-20 10:14 37.847610 -91.603517 37 33195ft 458kts
08-Aug-20 10:15 37.944544 -91.498386 37 33203ft 458kts
08-Aug-20 10:16 38.041325 -91.393051 37 33201ft 458kts
08-Aug-20 10:17 38.138332 -91.287022 38 33199ft 458kts
08-Aug-20 10:18 38.235157 -91.180937 38 33202ft 459kts
08-Aug-20 10:19 38.331528 -91.074901 37 33196ft 459kts
08-Aug-20 10:20 38.428044 -90.968315 37 33192ft 458kts
08-Aug-20 10:21 38.524386 -90.861536 37 33192ft 458kts
08-Aug-20 10:22 38.620409 -90.754713 37 33193ft 458kts
08-Aug-20 10:23 38.716639 -90.647268 37 33195ft 458kts
08-Aug-20 10:24 38.812559 -90.539770 37 33197ft 458kts
08-Aug-20 10:25 38.912355 -90.438673 28 33183ft 456kts
08-Aug-20 10:26 39.020204 -90.348185 29 33194ft 470kts
08-Aug-20 10:27 39.130546 -90.254717 29 33170ft 474kts
08-Aug-20 10:28 39.240915 -90.161198 29 33198ft 472kts
08-Aug-20 10:29 39.350567 -90.067817 29 33201ft 472kts
08-Aug-20 10:30 39.459773 -89.974460 29 33194ft 472kts
08-Aug-20 10:31 39.569043 -89.880695 29 33185ft 472kts
08-Aug-20 10:32 39.678385 -89.786505 29 33197ft 472kts
08-Aug-20 10:33 39.787736 -89.691942 29 33202ft 472kts
08-Aug-20 10:34 39.896631 -89.597412 29 33202ft 472kts
08-Aug-20 10:35 40.005440 -89.502588 29 33199ft 473kts
08-Aug-20 10:36 40.114553 -89.407156 29 33162ft 473kts
08-Aug-20 10:37 40.223376 -89.311585 30 32779ft 470kts
08-Aug-20 10:38 40.330008 -89.210006 33 28988ft 474kts
08-Aug-20 10:39 40.436539 -89.118085 22 26208ft 444kts
08-Aug-20 10:40 40.545825 -89.048851 23 23874ft 437kts
08-Aug-20 10:41 40.652388 -88.980208 23 21538ft 420kts
08-Aug-20 10:42 40.754989 -88.913892 23 19296ft 403kts
08-Aug-20 10:43 40.853227 -88.850184 23 17018ft 391kts
08-Aug-20 10:44 40.948667 -88.787677 24 14894ft 375kts
08-Aug-20 10:45 41.040116 -88.728098 24 12898ft 360kts
08-Aug-20 10:46 41.128138 -88.670690 24 10967ft 345kts
08-Aug-20 10:47 41.212448 -88.615362 24 9973ft 313kts
08-Aug-20 10:48 41.285123 -88.567727 24 10026ft 288kts
08-Aug-20 10:49 41.357744 -88.520078 24 8991ft 296kts
08-Aug-20 10:50 41.414996 -88.442209 50 7227ft 295kts
08-Aug-20 10:51 41.465368 -88.359274 50 5991ft 275kts
08-Aug-20 10:52 41.512420 -88.279071 58 5959ft 277kts
08-Aug-20 10:53 41.552804 -88.191398 58 4560ft 271kts
08-Aug-20 10:54 41.591696 -88.107399 59 3978ft 265kts
08-Aug-20 10:55 41.630660 -88.023125 59 3998ft 267kts
08-Aug-20 10:56 41.669088 -87.939803 59 4017ft 260kts
08-Aug-20 10:58 41.705635 -87.860193 59 4053ft 243kts
08-Aug-20 10:59 41.739339 -87.785764 59 3654ft 217kts
08-Aug-20 11:00 41.766939 -87.716640 67 2434ft 208kts
08-Aug-20 11:01 41.792721 -87.651048 38 1444ft 185kts
08-Aug-20 11:02 41.823969 -87.670613 247 1108ft 116kts
08-Aug-20 11:03 41.808622 -87.716819 241 1496ft 153kts
08-Aug-20 11:04 41.782859 -87.754634 221 627ft 22kts
08-Aug-20 11:05 41.780630 -87.755605 168 627ft 3kts
08-Aug-20 11:06 41.779230 -87.755392 181 627ft 5kts
08-Aug-20 11:07 41.779132 -87.754758 0 627ft 2kts
08-Aug-20 11:08 41.779204 -87.754758 359 627ft 0kts
08-Aug-20 11:09 41.779204 -87.754758 359 627ft 0kts

Navigation Log

Ident Type
Flight plan parsing failed, navigation log unavailable